<?xml version="1.0" encoding="UTF-8"?><gpx xmlns="http://www.topografix.com/GPX/1/1" xmlns:xsi="http://www.w3.org/2001/XMLSchema-instance" creator="komoot gpx writer" version="1.1" xsi:schemaLocation="http://www.topografix.com/GPX/1/1 http://www.topografix.com/GPX/1/1/gpx.xsd">

	<metadata>
		<name>Papiermuseum – Museo della Carta Runde von Maina Inferiore</name>
		<desc/>
		<link href="http://www.komoot.de">
			<text>komoot homepage</text>
			<type>text/html</type>
		</link>
	</metadata>
	
<wpt lat="45.64444351196289" lon="10.610555648803711">
<name/>
</wpt>
<wpt lat="45.64805603027344" lon="10.61722183227539">
<name/>
</wpt>
<wpt lat="45.647499084472656" lon="10.619166374206543">
<name/>
</wpt>
<wpt lat="45.64583206176758" lon="10.608333587646484">
<name/>
</wpt>
<wpt lat="45.64583206176758" lon="10.608333587646484">
<name/>
</wpt>
<trk>
<name>Papiermuseum – Museo della Carta Runde von Maina Inferiore</name>
<trkseg>
<trkpt lat="45.649616" lon="10.60389">
<ele>165.1554718017578</ele>
<time>2018-08-25T09:31:55Z</time>
</trkpt>
<trkpt lat="45.64983" lon="10.603915">
<ele>162.7974718017578</ele>
<time>2018-08-25T09:33:47Z</time>
</trkpt>
<trkpt lat="45.649902000000004" lon="10.60401">
<ele>162.5804718017578</ele>
<time>2018-08-25T09:33:53Z</time>
</trkpt>
<trkpt lat="45.64991800000001" lon="10.604145">
<ele>161.0234718017578</ele>
<time>2018-08-25T09:34:01Z</time>
</trkpt>
<trkpt lat="45.649952000000006" lon="10.604270000000001">
<ele>160.0604718017578</ele>
<time>2018-08-25T09:34:11Z</time>
</trkpt>
<trkpt lat="45.649820000000005" lon="10.604406">
<ele>153.8214718017578</ele>
<time>2018-08-25T09:35:09Z</time>
</trkpt>
<trkpt lat="45.649750000000004" lon="10.60449">
<ele>155.46547180175781</ele>
<time>2018-08-25T09:35:18Z</time>
</trkpt>
<trkpt lat="45.64969000000001" lon="10.604376">
<ele>155.44247180175782</ele>
<time>2018-08-25T09:35:26Z</time>
</trkpt>
<trkpt lat="45.64960000000001" lon="10.604304">
<ele>157.3274718017578</ele>
<time>2018-08-25T09:35:35Z</time>
</trkpt>
<trkpt lat="45.64950600000001" lon="10.604263000000001">
<ele>159.4824718017578</ele>
<time>2018-08-25T09:35:40Z</time>
</trkpt>
<trkpt lat="45.64940300000001" lon="10.604225000000001">
<ele>161.3154718017578</ele>
<time>2018-08-25T09:35:46Z</time>
</trkpt>
<trkpt lat="45.64931000000001" lon="10.604210000000002">
<ele>162.7064718017578</ele>
<time>2018-08-25T09:35:51Z</time>
</trkpt>
<trkpt lat="45.64922000000001" lon="10.604213000000001">
<ele>163.7894718017578</ele>
<time>2018-08-25T09:35:57Z</time>
</trkpt>
<trkpt lat="45.64912400000001" lon="10.604260000000002">
<ele>164.6544718017578</ele>
<time>2018-08-25T09:36:05Z</time>
</trkpt>
<trkpt lat="45.64903600000001" lon="10.604296000000001">
<ele>163.9164718017578</ele>
<time>2018-08-25T09:36:12Z</time>
</trkpt>
<trkpt lat="45.64893700000001" lon="10.604357000000002">
<ele>162.9934718017578</ele>
<time>2018-08-25T09:36:20Z</time>
</trkpt>
<trkpt lat="45.648840000000014" lon="10.604407000000002">
<ele>162.46647180175782</ele>
<time>2018-08-25T09:36:28Z</time>
</trkpt>
<trkpt lat="45.64875400000001" lon="10.604457000000002">
<ele>162.5174718017578</ele>
<time>2018-08-25T09:36:37Z</time>
</trkpt>
<trkpt lat="45.648660000000014" lon="10.604449000000002">
<ele>164.48347180175782</ele>
<time>2018-08-25T09:36:50Z</time>
</trkpt>
<trkpt lat="45.648575000000015" lon="10.604498000000003">
<ele>165.16247180175782</ele>
<time>2018-08-25T09:36:58Z</time>
</trkpt>
<trkpt lat="45.64850600000001" lon="10.604218000000003">
<ele>164.40647180175782</ele>
<time>2018-08-25T09:37:16Z</time>
</trkpt>
<trkpt lat="45.648426000000015" lon="10.604303000000003">
<ele>164.72147180175782</ele>
<time>2018-08-25T09:37:18Z</time>
</trkpt>
<trkpt lat="45.64834000000001" lon="10.604417000000003">
<ele>164.71647180175782</ele>
<time>2018-08-25T09:37:21Z</time>
</trkpt>
<trkpt lat="45.64826200000001" lon="10.604546000000003">
<ele>164.32547180175783</ele>
<time>2018-08-25T09:37:24Z</time>
</trkpt>
<trkpt lat="45.64819000000001" lon="10.604655000000003">
<ele>163.75647180175784</ele>
<time>2018-08-25T09:37:26Z</time>
</trkpt>
<trkpt lat="45.648120000000006" lon="10.604788000000003">
<ele>162.46247180175783</ele>
<time>2018-08-25T09:37:30Z</time>
</trkpt>
<trkpt lat="45.648070000000004" lon="10.604901000000003">
<ele>161.65047180175782</ele>
<time>2018-08-25T09:37:36Z</time>
</trkpt>
<trkpt lat="45.648006" lon="10.605006000000003">
<ele>161.71547180175781</ele>
<time>2018-08-25T09:37:43Z</time>
</trkpt>
<trkpt lat="45.647915000000005" lon="10.605057000000002">
<ele>161.93047180175782</ele>
<time>2018-08-25T09:37:55Z</time>
</trkpt>
<trkpt lat="45.647823" lon="10.605042000000003">
<ele>162.8164718017578</ele>
<time>2018-08-25T09:38:05Z</time>
</trkpt>
<trkpt lat="45.64773" lon="10.605063000000003">
<ele>164.7134718017578</ele>
<time>2018-08-25T09:38:18Z</time>
</trkpt>
<trkpt lat="45.647644" lon="10.605001000000003">
<ele>166.3444718017578</ele>
<time>2018-08-25T09:38:26Z</time>
</trkpt>
<trkpt lat="45.64756" lon="10.604935000000003">
<ele>167.9234718017578</ele>
<time>2018-08-25T09:38:33Z</time>
</trkpt>
<trkpt lat="45.64748" lon="10.604860000000002">
<ele>173.21547180175781</ele>
<time>2018-08-25T09:38:49Z</time>
</trkpt>
<trkpt lat="45.647377" lon="10.604877000000002">
<ele>177.52047180175782</ele>
<time>2018-08-25T09:39:02Z</time>
</trkpt>
<trkpt lat="45.64728" lon="10.604823000000001">
<ele>179.0064718017578</ele>
<time>2018-08-25T09:39:10Z</time>
</trkpt>
<trkpt lat="45.647186000000005" lon="10.604818000000002">
<ele>179.59847180175782</ele>
<time>2018-08-25T09:39:17Z</time>
</trkpt>
<trkpt lat="45.647083" lon="10.604798000000002">
<ele>179.58847180175783</ele>
<time>2018-08-25T09:39:23Z</time>
</trkpt>
<trkpt lat="45.64699" lon="10.604772000000002">
<ele>178.92847180175784</ele>
<time>2018-08-25T09:39:29Z</time>
</trkpt>
<trkpt lat="45.646774" lon="10.605211000000002">
<ele>173.46547180175784</ele>
<time>2018-08-25T09:40:01Z</time>
</trkpt>
<trkpt lat="45.646698" lon="10.605356000000002">
<ele>172.37047180175784</ele>
<time>2018-08-25T09:40:03Z</time>
</trkpt>
<trkpt lat="45.64663" lon="10.605480000000002">
<ele>171.30047180175785</ele>
<time>2018-08-25T09:40:06Z</time>
</trkpt>
<trkpt lat="45.646550000000005" lon="10.605587000000002">
<ele>169.85347180175785</ele>
<time>2018-08-25T09:40:09Z</time>
</trkpt>
<trkpt lat="45.64650700000001" lon="10.605708000000002">
<ele>166.05247180175786</ele>
<time>2018-08-25T09:40:17Z</time>
</trkpt>
<trkpt lat="45.64645800000001" lon="10.605823000000001">
<ele>161.92347180175787</ele>
<time>2018-08-25T09:40:28Z</time>
</trkpt>
<trkpt lat="45.64639300000001" lon="10.605916">
<ele>159.28947180175788</ele>
<time>2018-08-25T09:40:36Z</time>
</trkpt>
<trkpt lat="45.64631300000001" lon="10.606001000000001">
<ele>157.34147180175788</ele>
<time>2018-08-25T09:40:44Z</time>
</trkpt>
<trkpt lat="45.64523000000001" lon="10.607248">
<ele>139.18747180175788</ele>
<time>2018-08-25T09:42:42Z</time>
</trkpt>
<trkpt lat="45.64513400000001" lon="10.607248">
<ele>139.79547180175788</ele>
<time>2018-08-25T09:42:45Z</time>
</trkpt>
<trkpt lat="45.64506500000001" lon="10.607345">
<ele>144.27647180175788</ele>
<time>2018-08-25T09:43:02Z</time>
</trkpt>
<trkpt lat="45.645010000000006" lon="10.607461">
<ele>145.88447180175788</ele>
<time>2018-08-25T09:43:09Z</time>
</trkpt>
<trkpt lat="45.64493600000001" lon="10.60755">
<ele>147.8034718017579</ele>
<time>2018-08-25T09:43:18Z</time>
</trkpt>
<trkpt lat="45.64485500000001" lon="10.607613">
<ele>148.93747180175788</ele>
<time>2018-08-25T09:43:26Z</time>
</trkpt>
<trkpt lat="45.64478700000001" lon="10.607707000000001">
<ele>148.8204718017579</ele>
<time>2018-08-25T09:43:33Z</time>
</trkpt>
<trkpt lat="45.64470300000001" lon="10.607775000000002">
<ele>148.0774718017579</ele>
<time>2018-08-25T09:43:40Z</time>
</trkpt>
<trkpt lat="45.64464000000001" lon="10.607884000000002">
<ele>147.60447180175788</ele>
<time>2018-08-25T09:43:47Z</time>
</trkpt>
<trkpt lat="45.64456000000001" lon="10.607965000000002">
<ele>147.66347180175788</ele>
<time>2018-08-25T09:43:55Z</time>
</trkpt>
<trkpt lat="45.644463000000016" lon="10.607984000000002">
<ele>148.45247180175787</ele>
<time>2018-08-25T09:44:05Z</time>
</trkpt>
<trkpt lat="45.64436300000001" lon="10.608012000000002">
<ele>147.96847180175786</ele>
<time>2018-08-25T09:44:13Z</time>
</trkpt>
<trkpt lat="45.64427000000001" lon="10.608048000000002">
<ele>147.22347180175785</ele>
<time>2018-08-25T09:44:21Z</time>
</trkpt>
<trkpt lat="45.64418000000001" lon="10.608067000000002">
<ele>146.50947180175785</ele>
<time>2018-08-25T09:44:29Z</time>
</trkpt>
<trkpt lat="45.64408500000001" lon="10.608092000000003">
<ele>145.01647180175786</ele>
<time>2018-08-25T09:44:37Z</time>
</trkpt>
<trkpt lat="45.64399300000001" lon="10.608075000000003">
<ele>143.89247180175786</ele>
<time>2018-08-25T09:44:44Z</time>
</trkpt>
<trkpt lat="45.64390000000001" lon="10.608109000000002">
<ele>143.65447180175786</ele>
<time>2018-08-25T09:44:51Z</time>
</trkpt>
<trkpt lat="45.643814000000006" lon="10.608141000000002">
<ele>144.10647180175786</ele>
<time>2018-08-25T09:45:00Z</time>
</trkpt>
<trkpt lat="45.64372600000001" lon="10.608184000000001">
<ele>144.04047180175786</ele>
<time>2018-08-25T09:45:08Z</time>
</trkpt>
<trkpt lat="45.64365000000001" lon="10.608267000000001">
<ele>144.63747180175787</ele>
<time>2018-08-25T09:45:16Z</time>
</trkpt>
<trkpt lat="45.64357400000001" lon="10.608351">
<ele>144.15147180175788</ele>
<time>2018-08-25T09:45:24Z</time>
</trkpt>
<trkpt lat="45.64354300000001" lon="10.608476000000001">
<ele>144.12147180175788</ele>
<time>2018-08-25T09:45:28Z</time>
</trkpt>
<trkpt lat="45.64352000000001" lon="10.608606000000002">
<ele>144.29847180175787</ele>
<time>2018-08-25T09:45:35Z</time>
</trkpt>
<trkpt lat="45.64344400000001" lon="10.608707000000003">
<ele>144.17947180175787</ele>
<time>2018-08-25T09:45:42Z</time>
</trkpt>
<trkpt lat="45.64335300000001" lon="10.608753000000002">
<ele>143.97447180175786</ele>
<time>2018-08-25T09:45:51Z</time>
</trkpt>
<trkpt lat="45.643270000000015" lon="10.608793000000002">
<ele>144.31047180175787</ele>
<time>2018-08-25T09:45:59Z</time>
</trkpt>
<trkpt lat="45.643307000000014" lon="10.608912000000002">
<ele>144.43147180175788</ele>
<time>2018-08-25T09:46:22Z</time>
</trkpt>
<trkpt lat="45.64340600000001" lon="10.608968000000003">
<ele>144.06347180175788</ele>
<time>2018-08-25T09:46:36Z</time>
</trkpt>
<trkpt lat="45.64348600000001" lon="10.609022000000003">
<ele>146.06847180175788</ele>
<time>2018-08-25T09:46:57Z</time>
</trkpt>
<trkpt lat="45.64351700000001" lon="10.609153000000003">
<ele>146.90747180175788</ele>
<time>2018-08-25T09:47:11Z</time>
</trkpt>
<trkpt lat="45.64359000000001" lon="10.609262000000003">
<ele>146.91447180175788</ele>
<time>2018-08-25T09:47:24Z</time>
</trkpt>
<trkpt lat="45.64365800000001" lon="10.609349000000003">
<ele>147.1074718017579</ele>
<time>2018-08-25T09:47:32Z</time>
</trkpt>
<trkpt lat="45.64363000000001" lon="10.609476000000004">
<ele>145.8614718017579</ele>
<time>2018-08-25T09:47:58Z</time>
</trkpt>
<trkpt lat="45.64365400000001" lon="10.609621000000004">
<ele>144.12047180175787</ele>
<time>2018-08-25T09:48:07Z</time>
</trkpt>
<trkpt lat="45.643723000000016" lon="10.609720000000005">
<ele>142.17647180175788</ele>
<time>2018-08-25T09:48:15Z</time>
</trkpt>
<trkpt lat="45.64381800000002" lon="10.609692000000004">
<ele>142.53847180175788</ele>
<time>2018-08-25T09:48:28Z</time>
</trkpt>
<trkpt lat="45.64382000000002" lon="10.609562000000004">
<ele>149.1304718017579</ele>
<time>2018-08-25T09:49:00Z</time>
</trkpt>
<trkpt lat="45.64384500000002" lon="10.609435000000003">
<ele>153.3394718017579</ele>
<time>2018-08-25T09:49:18Z</time>
</trkpt>
<trkpt lat="45.64392000000002" lon="10.609508000000003">
<ele>157.71747180175788</ele>
<time>2018-08-25T09:49:40Z</time>
</trkpt>
<trkpt lat="45.64397400000002" lon="10.609618000000003">
<ele>159.5164718017579</ele>
<time>2018-08-25T09:49:48Z</time>
</trkpt>
<trkpt lat="45.64402400000002" lon="10.609740000000002">
<ele>159.8514718017579</ele>
<time>2018-08-25T09:49:57Z</time>
</trkpt>
<trkpt lat="45.644040000000025" lon="10.609869000000002">
<ele>160.1774718017579</ele>
<time>2018-08-25T09:50:06Z</time>
</trkpt>
<trkpt lat="45.64407300000003" lon="10.609988000000001">
<ele>161.68847180175788</ele>
<time>2018-08-25T09:50:16Z</time>
</trkpt>
<trkpt lat="45.64414000000003" lon="10.610081000000001">
<ele>162.05647180175788</ele>
<time>2018-08-25T09:50:22Z</time>
</trkpt>
<trkpt lat="45.64421000000003" lon="10.610168000000002">
<ele>163.33147180175789</ele>
<time>2018-08-25T09:50:32Z</time>
</trkpt>
<trkpt lat="45.64426000000003" lon="10.610287000000001">
<ele>164.5174718017579</ele>
<time>2018-08-25T09:50:41Z</time>
</trkpt>
<trkpt lat="45.64431000000003" lon="10.610393000000002">
<ele>166.4804718017579</ele>
<time>2018-08-25T09:50:54Z</time>
</trkpt>
<trkpt lat="45.64438600000003" lon="10.610471000000002">
<ele>167.7484718017579</ele>
<time>2018-08-25T09:51:04Z</time>
</trkpt>
<trkpt lat="45.644405000000035" lon="10.610605000000001">
<ele>168.5604718017579</ele>
<time>2018-08-25T09:51:26Z</time>
</trkpt>
<trkpt lat="45.64446000000004" lon="10.610716000000002">
<ele>170.2634718017579</ele>
<time>2018-08-25T09:51:33Z</time>
</trkpt>
<trkpt lat="45.644540000000035" lon="10.610805000000001">
<ele>172.3364718017579</ele>
<time>2018-08-25T09:51:41Z</time>
</trkpt>
<trkpt lat="45.64459200000003" lon="10.610922">
<ele>173.93447180175792</ele>
<time>2018-08-25T09:51:48Z</time>
</trkpt>
<trkpt lat="45.644653000000034" lon="10.611024">
<ele>175.7474718017579</ele>
<time>2018-08-25T09:51:59Z</time>
</trkpt>
<trkpt lat="45.64471000000003" lon="10.611128">
<ele>177.1404718017579</ele>
<time>2018-08-25T09:52:07Z</time>
</trkpt>
<trkpt lat="45.64477500000003" lon="10.611233">
<ele>178.14247180175792</ele>
<time>2018-08-25T09:52:16Z</time>
</trkpt>
<trkpt lat="45.64480600000003" lon="10.611360000000001">
<ele>179.42347180175793</ele>
<time>2018-08-25T09:52:27Z</time>
</trkpt>
<trkpt lat="45.644850000000034" lon="10.611476000000001">
<ele>179.47147180175793</ele>
<time>2018-08-25T09:52:35Z</time>
</trkpt>
<trkpt lat="45.644920000000035" lon="10.611577000000002">
<ele>179.67947180175793</ele>
<time>2018-08-25T09:52:44Z</time>
</trkpt>
<trkpt lat="45.64497400000003" lon="10.611687000000002">
<ele>181.00147180175793</ele>
<time>2018-08-25T09:52:54Z</time>
</trkpt>
<trkpt lat="45.64488200000003" lon="10.611529">
<ele>177.13047180175792</ele>
<time>2018-08-25T09:54:35Z</time>
</trkpt>
<trkpt lat="45.64481700000003" lon="10.611433000000002">
<ele>176.74647180175793</ele>
<time>2018-08-25T09:54:45Z</time>
</trkpt>
<trkpt lat="45.64477000000003" lon="10.611321000000002">
<ele>174.97247180175793</ele>
<time>2018-08-25T09:54:54Z</time>
</trkpt>
<trkpt lat="45.64472200000003" lon="10.611207000000002">
<ele>173.29047180175795</ele>
<time>2018-08-25T09:55:02Z</time>
</trkpt>
<trkpt lat="45.64466500000003" lon="10.611089000000002">
<ele>171.51247180175795</ele>
<time>2018-08-25T09:55:11Z</time>
</trkpt>
<trkpt lat="45.64461000000003" lon="10.610985000000001">
<ele>170.41547180175795</ele>
<time>2018-08-25T09:55:19Z</time>
</trkpt>
<trkpt lat="45.64455800000003" lon="10.610876000000001">
<ele>169.21547180175796</ele>
<time>2018-08-25T09:55:27Z</time>
</trkpt>
<trkpt lat="45.64449700000003" lon="10.610761000000002">
<ele>168.80147180175797</ele>
<time>2018-08-25T09:55:34Z</time>
</trkpt>
<trkpt lat="45.64445000000003" lon="10.610650000000001">
<ele>168.67847180175798</ele>
<time>2018-08-25T09:55:42Z</time>
</trkpt>
<trkpt lat="45.644386000000026" lon="10.610543000000002">
<ele>169.32247180175798</ele>
<time>2018-08-25T09:55:49Z</time>
</trkpt>
<trkpt lat="45.64431800000003" lon="10.610439000000001">
<ele>170.11847180175798</ele>
<time>2018-08-25T09:55:56Z</time>
</trkpt>
<trkpt lat="45.64426400000003" lon="10.610324000000002">
<ele>170.39947180175798</ele>
<time>2018-08-25T09:56:04Z</time>
</trkpt>
<trkpt lat="45.644203000000026" lon="10.610214000000003">
<ele>169.985471801758</ele>
<time>2018-08-25T09:56:14Z</time>
</trkpt>
<trkpt lat="45.644260000000024" lon="10.610112000000003">
<ele>169.808471801758</ele>
<time>2018-08-25T09:56:46Z</time>
</trkpt>
<trkpt lat="45.644375000000025" lon="10.610162000000003">
<ele>166.616471801758</ele>
<time>2018-08-25T09:57:23Z</time>
</trkpt>
<trkpt lat="45.64446300000002" lon="10.610213000000002">
<ele>166.156471801758</ele>
<time>2018-08-25T09:58:10Z</time>
</trkpt>
<trkpt lat="45.64450000000002" lon="10.610455000000002">
<ele>176.97547180175798</ele>
<time>2018-08-25T10:00:13Z</time>
</trkpt>
<trkpt lat="45.64451200000002" lon="10.610321000000003">
<ele>182.24947180175798</ele>
<time>2018-08-25T10:00:33Z</time>
</trkpt>
<trkpt lat="45.64448000000002" lon="10.609988000000003">
<ele>193.746471801758</ele>
<time>2018-08-25T10:01:37Z</time>
</trkpt>
<trkpt lat="45.644530000000024" lon="10.610313000000003">
<ele>197.73847180175798</ele>
<time>2018-08-25T10:03:00Z</time>
</trkpt>
<trkpt lat="45.64461000000002" lon="10.610254000000003">
<ele>197.239471801758</ele>
<time>2018-08-25T10:03:09Z</time>
</trkpt>
<trkpt lat="45.64463800000002" lon="10.610121000000003">
<ele>196.80947180175798</ele>
<time>2018-08-25T10:03:22Z</time>
</trkpt>
<trkpt lat="45.644620000000025" lon="10.609991000000003">
<ele>196.27747180175797</ele>
<time>2018-08-25T10:03:33Z</time>
</trkpt>
<trkpt lat="45.644640000000024" lon="10.609863000000002">
<ele>196.33647180175797</ele>
<time>2018-08-25T10:03:45Z</time>
</trkpt>
<trkpt lat="45.64465000000003" lon="10.609734000000003">
<ele>196.42447180175796</ele>
<time>2018-08-25T10:04:06Z</time>
</trkpt>
<trkpt lat="45.64463800000003" lon="10.609596000000003">
<ele>198.22347180175797</ele>
<time>2018-08-25T10:04:22Z</time>
</trkpt>
<trkpt lat="45.64465700000003" lon="10.609464000000003">
<ele>200.07847180175796</ele>
<time>2018-08-25T10:04:36Z</time>
</trkpt>
<trkpt lat="45.64462300000003" lon="10.609345000000003">
<ele>201.39647180175797</ele>
<time>2018-08-25T10:04:44Z</time>
</trkpt>
<trkpt lat="45.64456600000003" lon="10.609241000000003">
<ele>201.07947180175796</ele>
<time>2018-08-25T10:05:02Z</time>
</trkpt>
<trkpt lat="45.644608000000034" lon="10.609120000000003">
<ele>201.28147180175796</ele>
<time>2018-08-25T10:05:15Z</time>
</trkpt>
<trkpt lat="45.64468000000004" lon="10.609023000000002">
<ele>201.21847180175797</ele>
<time>2018-08-25T10:05:30Z</time>
</trkpt>
<trkpt lat="45.64476400000004" lon="10.608965000000003">
<ele>201.36747180175797</ele>
<time>2018-08-25T10:05:42Z</time>
</trkpt>
<trkpt lat="45.64492400000004" lon="10.609074000000003">
<ele>203.38847180175796</ele>
<time>2018-08-25T10:06:31Z</time>
</trkpt>
<trkpt lat="45.645004000000036" lon="10.609157000000003">
<ele>205.29347180175796</ele>
<time>2018-08-25T10:06:48Z</time>
</trkpt>
<trkpt lat="45.64509600000004" lon="10.609167000000003">
<ele>207.36147180175797</ele>
<time>2018-08-25T10:06:59Z</time>
</trkpt>
<trkpt lat="45.64513800000004" lon="10.609049000000002">
<ele>209.50747180175796</ele>
<time>2018-08-25T10:07:09Z</time>
</trkpt>
<trkpt lat="45.645218000000035" lon="10.608978000000002">
<ele>214.41547180175795</ele>
<time>2018-08-25T10:07:29Z</time>
</trkpt>
<trkpt lat="45.64531000000004" lon="10.608946000000003">
<ele>218.85847180175796</ele>
<time>2018-08-25T10:07:50Z</time>
</trkpt>
<trkpt lat="45.64538600000004" lon="10.608873000000003">
<ele>222.71447180175795</ele>
<time>2018-08-25T10:08:13Z</time>
</trkpt>
<trkpt lat="45.64547300000004" lon="10.608842000000003">
<ele>225.51347180175796</ele>
<time>2018-08-25T10:08:30Z</time>
</trkpt>
<trkpt lat="45.64556500000004" lon="10.608841000000004">
<ele>230.45947180175796</ele>
<time>2018-08-25T10:09:26Z</time>
</trkpt>
<trkpt lat="45.64565000000004" lon="10.608779000000004">
<ele>237.75547180175795</ele>
<time>2018-08-25T10:10:24Z</time>
</trkpt>
<trkpt lat="45.645702000000036" lon="10.608661000000003">
<ele>239.38547180175794</ele>
<time>2018-08-25T10:10:50Z</time>
</trkpt>
<trkpt lat="45.645756000000034" lon="10.608555000000003">
<ele>241.77947180175795</ele>
<time>2018-08-25T10:11:04Z</time>
</trkpt>
<trkpt lat="45.64571000000004" lon="10.608438000000003">
<ele>244.08847180175795</ele>
<time>2018-08-25T10:11:30Z</time>
</trkpt>
<trkpt lat="45.645798000000035" lon="10.608542000000003">
<ele>246.21247180175794</ele>
<time>2018-08-25T10:14:53Z</time>
</trkpt>
<trkpt lat="45.645874000000035" lon="10.608617000000004">
<ele>244.24347180175795</ele>
<time>2018-08-25T10:15:11Z</time>
</trkpt>
<trkpt lat="45.645916000000035" lon="10.608500000000005">
<ele>247.68047180175796</ele>
<time>2018-08-25T10:15:40Z</time>
</trkpt>
<trkpt lat="45.645970000000034" lon="10.608393000000005">
<ele>252.01347180175796</ele>
<time>2018-08-25T10:16:19Z</time>
</trkpt>
<trkpt lat="45.646057000000035" lon="10.608336000000005">
<ele>254.86747180175797</ele>
<time>2018-08-25T10:16:35Z</time>
</trkpt>
<trkpt lat="45.646150000000034" lon="10.608303000000005">
<ele>256.727471801758</ele>
<time>2018-08-25T10:16:52Z</time>
</trkpt>
<trkpt lat="45.646248000000035" lon="10.608314000000005">
<ele>258.27647180175796</ele>
<time>2018-08-25T10:17:05Z</time>
</trkpt>
<trkpt lat="45.64634000000004" lon="10.608288000000005">
<ele>259.686471801758</ele>
<time>2018-08-25T10:17:20Z</time>
</trkpt>
<trkpt lat="45.64641600000004" lon="10.608201000000005">
<ele>261.285471801758</ele>
<time>2018-08-25T10:17:42Z</time>
</trkpt>
<trkpt lat="45.646507000000035" lon="10.608150000000006">
<ele>261.606471801758</ele>
<time>2018-08-25T10:17:54Z</time>
</trkpt>
<trkpt lat="45.64655000000003" lon="10.608032000000005">
<ele>262.583471801758</ele>
<time>2018-08-25T10:18:04Z</time>
</trkpt>
<trkpt lat="45.64655700000003" lon="10.607904000000005">
<ele>263.36547180175796</ele>
<time>2018-08-25T10:18:11Z</time>
</trkpt>
<trkpt lat="45.64660300000003" lon="10.607793000000004">
<ele>263.50547180175795</ele>
<time>2018-08-25T10:18:23Z</time>
</trkpt>
<trkpt lat="45.64663300000003" lon="10.607657000000005">
<ele>264.47447180175794</ele>
<time>2018-08-25T10:18:34Z</time>
</trkpt>
<trkpt lat="45.64663300000003" lon="10.607790000000005">
<ele>267.54947180175793</ele>
<time>2018-08-25T10:19:29Z</time>
</trkpt>
<trkpt lat="45.64660600000003" lon="10.607915000000006">
<ele>268.58447180175796</ele>
<time>2018-08-25T10:19:39Z</time>
</trkpt>
<trkpt lat="45.64661400000003" lon="10.608047000000006">
<ele>269.28847180175796</ele>
<time>2018-08-25T10:19:48Z</time>
</trkpt>
<trkpt lat="45.64663700000003" lon="10.608171000000006">
<ele>269.76247180175795</ele>
<time>2018-08-25T10:19:57Z</time>
</trkpt>
<trkpt lat="45.646660000000026" lon="10.608302000000005">
<ele>270.69947180175797</ele>
<time>2018-08-25T10:20:06Z</time>
</trkpt>
<trkpt lat="45.646652000000024" lon="10.608434000000006">
<ele>270.96147180175797</ele>
<time>2018-08-25T10:20:16Z</time>
</trkpt>
<trkpt lat="45.64663000000002" lon="10.608565000000006">
<ele>270.82547180175794</ele>
<time>2018-08-25T10:20:37Z</time>
</trkpt>
<trkpt lat="45.64663300000002" lon="10.608701000000005">
<ele>270.82947180175796</ele>
<time>2018-08-25T10:20:45Z</time>
</trkpt>
<trkpt lat="45.64663700000002" lon="10.608836000000005">
<ele>271.39747180175794</ele>
<time>2018-08-25T10:20:54Z</time>
</trkpt>
<trkpt lat="45.64664500000002" lon="10.608966000000006">
<ele>271.14047180175794</ele>
<time>2018-08-25T10:21:01Z</time>
</trkpt>
<trkpt lat="45.64663700000002" lon="10.609108000000006">
<ele>270.88347180175793</ele>
<time>2018-08-25T10:21:11Z</time>
</trkpt>
<trkpt lat="45.64665600000002" lon="10.609245000000007">
<ele>270.8864718017579</ele>
<time>2018-08-25T10:21:18Z</time>
</trkpt>
<trkpt lat="45.64668700000002" lon="10.609378000000007">
<ele>269.9854718017579</ele>
<time>2018-08-25T10:21:28Z</time>
</trkpt>
<trkpt lat="45.64672000000002" lon="10.609515000000007">
<ele>270.5424718017579</ele>
<time>2018-08-25T10:21:36Z</time>
</trkpt>
<trkpt lat="45.646790000000024" lon="10.609604000000006">
<ele>271.45247180175795</ele>
<time>2018-08-25T10:21:44Z</time>
</trkpt>
<trkpt lat="45.64687300000002" lon="10.609670000000007">
<ele>272.84447180175795</ele>
<time>2018-08-25T10:22:15Z</time>
</trkpt>
<trkpt lat="45.646942000000024" lon="10.609779000000007">
<ele>272.94847180175793</ele>
<time>2018-08-25T10:22:25Z</time>
</trkpt>
<trkpt lat="45.64700000000003" lon="10.609887000000008">
<ele>272.67447180175793</ele>
<time>2018-08-25T10:22:34Z</time>
</trkpt>
<trkpt lat="45.64706400000003" lon="10.609983000000007">
<ele>271.92147180175795</ele>
<time>2018-08-25T10:22:43Z</time>
</trkpt>
<trkpt lat="45.64713700000003" lon="10.610074000000006">
<ele>271.42847180175795</ele>
<time>2018-08-25T10:22:52Z</time>
</trkpt>
<trkpt lat="45.64720500000003" lon="10.610160000000006">
<ele>270.9174718017579</ele>
<time>2018-08-25T10:22:59Z</time>
</trkpt>
<trkpt lat="45.64727400000003" lon="10.610245000000006">
<ele>271.35447180175794</ele>
<time>2018-08-25T10:23:08Z</time>
</trkpt>
<trkpt lat="45.64735800000003" lon="10.610338000000006">
<ele>271.21747180175794</ele>
<time>2018-08-25T10:23:17Z</time>
</trkpt>
<trkpt lat="45.647408000000034" lon="10.610447000000006">
<ele>271.10447180175794</ele>
<time>2018-08-25T10:23:26Z</time>
</trkpt>
<trkpt lat="45.64745700000003" lon="10.610558000000006">
<ele>270.51547180175794</ele>
<time>2018-08-25T10:23:41Z</time>
</trkpt>
<trkpt lat="45.64751400000003" lon="10.610655000000007">
<ele>270.43147180175794</ele>
<time>2018-08-25T10:23:48Z</time>
</trkpt>
<trkpt lat="45.64755600000003" lon="10.610798000000006">
<ele>270.47647180175795</ele>
<time>2018-08-25T10:24:00Z</time>
</trkpt>
<trkpt lat="45.64759400000003" lon="10.610915000000006">
<ele>271.12347180175794</ele>
<time>2018-08-25T10:24:08Z</time>
</trkpt>
<trkpt lat="45.64749000000003" lon="10.610923000000005">
<ele>273.22747180175793</ele>
<time>2018-08-25T10:25:03Z</time>
</trkpt>
<trkpt lat="45.647335000000034" lon="10.611016000000005">
<ele>268.58047180175794</ele>
<time>2018-08-25T10:27:33Z</time>
</trkpt>
<trkpt lat="45.64726600000003" lon="10.611112000000004">
<ele>269.29847180175796</ele>
<time>2018-08-25T10:27:43Z</time>
</trkpt>
<trkpt lat="45.64724000000003" lon="10.611238000000004">
<ele>269.58447180175796</ele>
<time>2018-08-25T10:27:50Z</time>
</trkpt>
<trkpt lat="45.64723200000003" lon="10.611365000000005">
<ele>269.24147180175794</ele>
<time>2018-08-25T10:27:58Z</time>
</trkpt>
<trkpt lat="45.64725500000003" lon="10.611499000000004">
<ele>268.85947180175793</ele>
<time>2018-08-25T10:28:05Z</time>
</trkpt>
<trkpt lat="45.64725500000003" lon="10.611638000000005">
<ele>268.94747180175796</ele>
<time>2018-08-25T10:28:16Z</time>
</trkpt>
<trkpt lat="45.64726300000003" lon="10.611770000000005">
<ele>268.50847180175793</ele>
<time>2018-08-25T10:28:28Z</time>
</trkpt>
<trkpt lat="45.64728500000003" lon="10.611896000000005">
<ele>267.6914718017579</ele>
<time>2018-08-25T10:28:34Z</time>
</trkpt>
<trkpt lat="45.64732400000003" lon="10.612021000000006">
<ele>266.7444718017579</ele>
<time>2018-08-25T10:28:42Z</time>
</trkpt>
<trkpt lat="45.64735800000003" lon="10.612157000000005">
<ele>266.27547180175793</ele>
<time>2018-08-25T10:28:50Z</time>
</trkpt>
<trkpt lat="45.647380000000034" lon="10.612288000000005">
<ele>264.8164718017579</ele>
<time>2018-08-25T10:28:58Z</time>
</trkpt>
<trkpt lat="45.647408000000034" lon="10.612411000000005">
<ele>262.5504718017579</ele>
<time>2018-08-25T10:29:06Z</time>
</trkpt>
<trkpt lat="45.64746500000003" lon="10.612523000000005">
<ele>262.0644718017579</ele>
<time>2018-08-25T10:29:12Z</time>
</trkpt>
<trkpt lat="45.64751400000003" lon="10.612632000000005">
<ele>261.3414718017579</ele>
<time>2018-08-25T10:29:18Z</time>
</trkpt>
<trkpt lat="45.647580000000026" lon="10.612727000000005">
<ele>260.0034718017579</ele>
<time>2018-08-25T10:29:27Z</time>
</trkpt>
<trkpt lat="45.647640000000024" lon="10.612840000000006">
<ele>258.8134718017579</ele>
<time>2018-08-25T10:29:36Z</time>
</trkpt>
<trkpt lat="45.64771700000002" lon="10.612931000000005">
<ele>257.8824718017579</ele>
<time>2018-08-25T10:29:44Z</time>
</trkpt>
<trkpt lat="45.647778000000024" lon="10.613034000000004">
<ele>256.3364718017579</ele>
<time>2018-08-25T10:29:52Z</time>
</trkpt>
<trkpt lat="45.64785000000003" lon="10.613123000000003">
<ele>254.75547180175792</ele>
<time>2018-08-25T10:30:00Z</time>
</trkpt>
<trkpt lat="45.64790000000003" lon="10.613256000000003">
<ele>252.97247180175793</ele>
<time>2018-08-25T10:30:10Z</time>
</trkpt>
<trkpt lat="45.647960000000026" lon="10.613357000000004">
<ele>251.30147180175794</ele>
<time>2018-08-25T10:30:19Z</time>
</trkpt>
<trkpt lat="45.648014000000025" lon="10.613473000000004">
<ele>250.05647180175794</ele>
<time>2018-08-25T10:30:27Z</time>
</trkpt>
<trkpt lat="45.648070000000025" lon="10.613606000000004">
<ele>249.50847180175793</ele>
<time>2018-08-25T10:30:35Z</time>
</trkpt>
<trkpt lat="45.64812000000003" lon="10.613728000000004">
<ele>248.72147180175793</ele>
<time>2018-08-25T10:30:46Z</time>
</trkpt>
<trkpt lat="45.64815000000003" lon="10.613856000000004">
<ele>248.48147180175792</ele>
<time>2018-08-25T10:30:54Z</time>
</trkpt>
<trkpt lat="45.64820000000003" lon="10.613964000000005">
<ele>247.91247180175793</ele>
<time>2018-08-25T10:31:02Z</time>
</trkpt>
<trkpt lat="45.64826200000003" lon="10.614073000000005">
<ele>244.70447180175793</ele>
<time>2018-08-25T10:31:18Z</time>
</trkpt>
<trkpt lat="45.64829600000003" lon="10.614197000000004">
<ele>243.45947180175793</ele>
<time>2018-08-25T10:31:24Z</time>
</trkpt>
<trkpt lat="45.64834600000003" lon="10.614310000000005">
<ele>242.20047180175794</ele>
<time>2018-08-25T10:31:31Z</time>
</trkpt>
<trkpt lat="45.64838000000003" lon="10.614450000000005">
<ele>241.06447180175795</ele>
<time>2018-08-25T10:31:39Z</time>
</trkpt>
<trkpt lat="45.648396000000034" lon="10.614585000000005">
<ele>239.95147180175795</ele>
<time>2018-08-25T10:31:48Z</time>
</trkpt>
<trkpt lat="45.648415000000035" lon="10.614720000000005">
<ele>238.53447180175795</ele>
<time>2018-08-25T10:31:56Z</time>
</trkpt>
<trkpt lat="45.648460000000036" lon="10.614841000000006">
<ele>238.18247180175794</ele>
<time>2018-08-25T10:32:03Z</time>
</trkpt>
<trkpt lat="45.64851800000004" lon="10.614941000000005">
<ele>237.39947180175795</ele>
<time>2018-08-25T10:32:09Z</time>
</trkpt>
<trkpt lat="45.64857500000004" lon="10.615061000000006">
<ele>235.25047180175795</ele>
<time>2018-08-25T10:32:20Z</time>
</trkpt>
<trkpt lat="45.648525000000035" lon="10.615171000000005">
<ele>232.81547180175795</ele>
<time>2018-08-25T10:32:45Z</time>
</trkpt>
<trkpt lat="45.648460000000036" lon="10.615267000000005">
<ele>232.57747180175795</ele>
<time>2018-08-25T10:32:50Z</time>
</trkpt>
<trkpt lat="45.64845300000004" lon="10.615398000000004">
<ele>232.11147180175794</ele>
<time>2018-08-25T10:32:58Z</time>
</trkpt>
<trkpt lat="45.64850600000004" lon="10.615521000000005">
<ele>231.39447180175793</ele>
<time>2018-08-25T10:33:06Z</time>
</trkpt>
<trkpt lat="45.64855600000004" lon="10.615631000000004">
<ele>230.59747180175793</ele>
<time>2018-08-25T10:33:13Z</time>
</trkpt>
<trkpt lat="45.64859800000004" lon="10.615763000000005">
<ele>230.77647180175794</ele>
<time>2018-08-25T10:33:23Z</time>
</trkpt>
<trkpt lat="45.648620000000044" lon="10.615892000000004">
<ele>231.52947180175792</ele>
<time>2018-08-25T10:33:29Z</time>
</trkpt>
<trkpt lat="45.64864700000005" lon="10.616016000000004">
<ele>232.34747180175793</ele>
<time>2018-08-25T10:33:38Z</time>
</trkpt>
<trkpt lat="45.648693000000044" lon="10.616139000000004">
<ele>233.02447180175793</ele>
<time>2018-08-25T10:33:44Z</time>
</trkpt>
<trkpt lat="45.648735000000045" lon="10.616259000000005">
<ele>233.89447180175793</ele>
<time>2018-08-25T10:33:51Z</time>
</trkpt>
<trkpt lat="45.64877000000004" lon="10.616397000000005">
<ele>234.57347180175793</ele>
<time>2018-08-25T10:34:01Z</time>
</trkpt>
<trkpt lat="45.64881500000004" lon="10.616519000000004">
<ele>235.41047180175792</ele>
<time>2018-08-25T10:34:07Z</time>
</trkpt>
<trkpt lat="45.64877000000004" lon="10.616639000000005">
<ele>237.84947180175791</ele>
<time>2018-08-25T10:34:25Z</time>
</trkpt>
<trkpt lat="45.64870000000004" lon="10.616746000000004">
<ele>238.27847180175792</ele>
<time>2018-08-25T10:34:34Z</time>
</trkpt>
<trkpt lat="45.64863000000004" lon="10.616826000000005">
<ele>238.9974718017579</ele>
<time>2018-08-25T10:34:41Z</time>
</trkpt>
<trkpt lat="45.64855200000004" lon="10.616900000000005">
<ele>239.12947180175792</ele>
<time>2018-08-25T10:34:49Z</time>
</trkpt>
<trkpt lat="45.64847600000004" lon="10.616982000000005">
<ele>239.7224718017579</ele>
<time>2018-08-25T10:34:59Z</time>
</trkpt>
<trkpt lat="45.648384000000036" lon="10.617039000000005">
<ele>240.5424718017579</ele>
<time>2018-08-25T10:35:07Z</time>
</trkpt>
<trkpt lat="45.648300000000035" lon="10.617092000000005">
<ele>240.1724718017579</ele>
<time>2018-08-25T10:35:15Z</time>
</trkpt>
<trkpt lat="45.648210000000034" lon="10.617104000000005">
<ele>238.8704718017579</ele>
<time>2018-08-25T10:35:24Z</time>
</trkpt>
<trkpt lat="45.648117000000035" lon="10.617080000000005">
<ele>234.2684718017579</ele>
<time>2018-08-25T10:35:57Z</time>
</trkpt>
<trkpt lat="45.648030000000034" lon="10.617022000000006">
<ele>230.18847180175788</ele>
<time>2018-08-25T10:36:12Z</time>
</trkpt>
<trkpt lat="45.64796000000003" lon="10.617140000000006">
<ele>228.69447180175789</ele>
<time>2018-08-25T10:36:22Z</time>
</trkpt>
<trkpt lat="45.64797200000003" lon="10.617281000000006">
<ele>227.76347180175787</ele>
<time>2018-08-25T10:36:30Z</time>
</trkpt>
<trkpt lat="45.64798400000003" lon="10.617424000000005">
<ele>227.16647180175787</ele>
<time>2018-08-25T10:36:39Z</time>
</trkpt>
<trkpt lat="45.64794500000003" lon="10.617548000000005">
<ele>226.29047180175786</ele>
<time>2018-08-25T10:36:49Z</time>
</trkpt>
<trkpt lat="45.647873000000025" lon="10.617631000000005">
<ele>225.93647180175785</ele>
<time>2018-08-25T10:36:59Z</time>
</trkpt>
<trkpt lat="45.647800000000025" lon="10.617713000000006">
<ele>225.34047180175784</ele>
<time>2018-08-25T10:37:09Z</time>
</trkpt>
<trkpt lat="45.64773600000002" lon="10.617823000000005">
<ele>224.72347180175785</ele>
<time>2018-08-25T10:37:17Z</time>
</trkpt>
<trkpt lat="45.647713000000024" lon="10.617954000000005">
<ele>223.87147180175785</ele>
<time>2018-08-25T10:37:26Z</time>
</trkpt>
<trkpt lat="45.64775000000002" lon="10.618081000000005">
<ele>223.57547180175786</ele>
<time>2018-08-25T10:37:37Z</time>
</trkpt>
<trkpt lat="45.647778000000024" lon="10.618212000000005">
<ele>219.34347180175786</ele>
<time>2018-08-25T10:38:12Z</time>
</trkpt>
<trkpt lat="45.647778000000024" lon="10.618351000000006">
<ele>218.40047180175785</ele>
<time>2018-08-25T10:38:23Z</time>
</trkpt>
<trkpt lat="45.64777000000002" lon="10.618494000000005">
<ele>217.04947180175785</ele>
<time>2018-08-25T10:38:36Z</time>
</trkpt>
<trkpt lat="45.647780000000026" lon="10.618629000000006">
<ele>215.10647180175783</ele>
<time>2018-08-25T10:38:53Z</time>
</trkpt>
<trkpt lat="45.647800000000025" lon="10.618762000000006">
<ele>213.59347180175783</ele>
<time>2018-08-25T10:39:10Z</time>
</trkpt>
<trkpt lat="45.64781000000003" lon="10.618897000000006">
<ele>211.70347180175784</ele>
<time>2018-08-25T10:39:30Z</time>
</trkpt>
<trkpt lat="45.64773600000003" lon="10.618967000000005">
<ele>202.61947180175784</ele>
<time>2018-08-25T10:41:20Z</time>
</trkpt>
<trkpt lat="45.64765000000003" lon="10.619012000000005">
<ele>200.77347180175784</ele>
<time>2018-08-25T10:41:41Z</time>
</trkpt>
<trkpt lat="45.64760200000003" lon="10.619121000000005">
<ele>198.45547180175782</ele>
<time>2018-08-25T10:42:01Z</time>
</trkpt>
<trkpt lat="45.647476000000026" lon="10.619005000000005">
<ele>188.31347180175783</ele>
<time>2018-08-25T10:43:56Z</time>
</trkpt>
<trkpt lat="45.647324000000026" lon="10.618877000000005">
<ele>183.32747180175784</ele>
<time>2018-08-25T10:45:00Z</time>
</trkpt>
<trkpt lat="45.64722400000002" lon="10.618826000000006">
<ele>181.80747180175783</ele>
<time>2018-08-25T10:45:23Z</time>
</trkpt>
<trkpt lat="45.64713700000002" lon="10.618768000000006">
<ele>179.94547180175783</ele>
<time>2018-08-25T10:45:35Z</time>
</trkpt>
<trkpt lat="45.64692300000002" lon="10.618663000000007">
<ele>176.01147180175784</ele>
<time>2018-08-25T10:48:15Z</time>
</trkpt>
<trkpt lat="45.64684700000002" lon="10.618591000000007">
<ele>168.76047180175783</ele>
<time>2018-08-25T10:48:58Z</time>
</trkpt>
<trkpt lat="45.64677400000002" lon="10.618508000000007">
<ele>166.64747180175783</ele>
<time>2018-08-25T10:49:17Z</time>
</trkpt>
<trkpt lat="45.64671300000002" lon="10.618394000000007">
<ele>164.58947180175784</ele>
<time>2018-08-25T10:49:33Z</time>
</trkpt>
<trkpt lat="45.64661400000002" lon="10.618203000000008">
<ele>161.78447180175783</ele>
<time>2018-08-25T10:50:29Z</time>
</trkpt>
<trkpt lat="45.64655300000002" lon="10.618088000000009">
<ele>160.60947180175782</ele>
<time>2018-08-25T10:50:37Z</time>
</trkpt>
<trkpt lat="45.64649600000002" lon="10.617980000000008">
<ele>158.61647180175783</ele>
<time>2018-08-25T10:50:49Z</time>
</trkpt>
<trkpt lat="45.64646500000002" lon="10.617835000000008">
<ele>156.09147180175782</ele>
<time>2018-08-25T10:51:00Z</time>
</trkpt>
<trkpt lat="45.64642700000002" lon="10.617710000000008">
<ele>154.09047180175781</ele>
<time>2018-08-25T10:51:10Z</time>
</trkpt>
<trkpt lat="45.646366000000015" lon="10.617608000000008">
<ele>152.3864718017578</ele>
<time>2018-08-25T10:51:18Z</time>
</trkpt>
<trkpt lat="45.64631700000002" lon="10.617492000000007">
<ele>150.61547180175782</ele>
<time>2018-08-25T10:51:25Z</time>
</trkpt>
<trkpt lat="45.64626000000002" lon="10.617387000000008">
<ele>148.16347180175782</ele>
<time>2018-08-25T10:51:34Z</time>
</trkpt>
<trkpt lat="45.64622500000002" lon="10.617269000000007">
<ele>145.68147180175782</ele>
<time>2018-08-25T10:51:43Z</time>
</trkpt>
<trkpt lat="45.64615000000002" lon="10.617177000000007">
<ele>143.36647180175783</ele>
<time>2018-08-25T10:51:55Z</time>
</trkpt>
<trkpt lat="45.64607000000002" lon="10.617114000000006">
<ele>141.63647180175784</ele>
<time>2018-08-25T10:52:02Z</time>
</trkpt>
<trkpt lat="45.645990000000026" lon="10.617028000000007">
<ele>139.55747180175783</ele>
<time>2018-08-25T10:52:11Z</time>
</trkpt>
<trkpt lat="45.64593500000002" lon="10.616919000000006">
<ele>137.34247180175782</ele>
<time>2018-08-25T10:52:25Z</time>
</trkpt>
<trkpt lat="45.645850000000024" lon="10.616833000000007">
<ele>136.57447180175782</ele>
<time>2018-08-25T10:52:33Z</time>
</trkpt>
<trkpt lat="45.64579400000002" lon="10.616727000000006">
<ele>135.39447180175782</ele>
<time>2018-08-25T10:52:40Z</time>
</trkpt>
<trkpt lat="45.64576700000002" lon="10.616599000000006">
<ele>133.85347180175782</ele>
<time>2018-08-25T10:52:52Z</time>
</trkpt>
<trkpt lat="45.64568000000002" lon="10.616515000000007">
<ele>134.24547180175782</ele>
<time>2018-08-25T10:53:00Z</time>
</trkpt>
<trkpt lat="45.64561500000002" lon="10.616419000000008">
<ele>133.63247180175782</ele>
<time>2018-08-25T10:53:08Z</time>
</trkpt>
<trkpt lat="45.64556000000002" lon="10.616289000000007">
<ele>132.57347180175782</ele>
<time>2018-08-25T10:53:14Z</time>
</trkpt>
<trkpt lat="45.645485000000015" lon="10.616206000000007">
<ele>132.07547180175783</ele>
<time>2018-08-25T10:53:19Z</time>
</trkpt>
<trkpt lat="45.64541000000001" lon="10.616131000000006">
<ele>132.75147180175782</ele>
<time>2018-08-25T10:53:36Z</time>
</trkpt>
<trkpt lat="45.645370000000014" lon="10.616012000000007">
<ele>133.09947180175783</ele>
<time>2018-08-25T10:53:43Z</time>
</trkpt>
<trkpt lat="45.64530600000001" lon="10.615905000000007">
<ele>133.92347180175784</ele>
<time>2018-08-25T10:53:51Z</time>
</trkpt>
<trkpt lat="45.645218000000014" lon="10.615801000000006">
<ele>134.00847180175785</ele>
<time>2018-08-25T10:53:56Z</time>
</trkpt>
<trkpt lat="45.64513400000001" lon="10.615723000000006">
<ele>133.88947180175785</ele>
<time>2018-08-25T10:54:02Z</time>
</trkpt>
<trkpt lat="45.64504200000001" lon="10.615688000000006">
<ele>134.20847180175784</ele>
<time>2018-08-25T10:54:06Z</time>
</trkpt>
<trkpt lat="45.64495500000001" lon="10.615722000000005">
<ele>134.44347180175785</ele>
<time>2018-08-25T10:54:25Z</time>
</trkpt>
<trkpt lat="45.64492800000001" lon="10.615573000000005">
<ele>132.77747180175786</ele>
<time>2018-08-25T10:54:38Z</time>
</trkpt>
<trkpt lat="45.644875000000006" lon="10.615462000000004">
<ele>131.93547180175784</ele>
<time>2018-08-25T10:54:43Z</time>
</trkpt>
<trkpt lat="45.644825000000004" lon="10.615329000000004">
<ele>130.86747180175783</ele>
<time>2018-08-25T10:54:48Z</time>
</trkpt>
<trkpt lat="45.644768000000006" lon="10.615213000000004">
<ele>129.38247180175782</ele>
<time>2018-08-25T10:54:55Z</time>
</trkpt>
<trkpt lat="45.644768000000006" lon="10.615081000000004">
<ele>128.13347180175782</ele>
<time>2018-08-25T10:55:01Z</time>
</trkpt>
<trkpt lat="45.644592" lon="10.614924000000004">
<ele>124.08447180175781</ele>
<time>2018-08-25T10:55:39Z</time>
</trkpt>
<trkpt lat="45.644558" lon="10.614804000000003">
<ele>123.27547180175782</ele>
<time>2018-08-25T10:55:47Z</time>
</trkpt>
<trkpt lat="45.644527000000004" lon="10.614674000000003">
<ele>123.21547180175781</ele>
<time>2018-08-25T10:55:56Z</time>
</trkpt>
<trkpt lat="45.644485" lon="10.614543000000003">
<ele>125.16347180175781</ele>
<time>2018-08-25T10:56:05Z</time>
</trkpt>
<trkpt lat="45.644413" lon="10.614447000000004">
<ele>126.8504718017578</ele>
<time>2018-08-25T10:56:13Z</time>
</trkpt>
<trkpt lat="45.64434" lon="10.614369000000003">
<ele>127.6824718017578</ele>
<time>2018-08-25T10:56:18Z</time>
</trkpt>
<trkpt lat="45.644287" lon="10.614256000000003">
<ele>128.1264718017578</ele>
<time>2018-08-25T10:56:25Z</time>
</trkpt>
<trkpt lat="45.644268" lon="10.614121000000003">
<ele>127.86047180175778</ele>
<time>2018-08-25T10:56:34Z</time>
</trkpt>
<trkpt lat="45.644225999999996" lon="10.614003000000002">
<ele>127.90747180175778</ele>
<time>2018-08-25T10:56:42Z</time>
</trkpt>
<trkpt lat="45.64418" lon="10.613888000000003">
<ele>127.65047180175777</ele>
<time>2018-08-25T10:56:50Z</time>
</trkpt>
<trkpt lat="45.64411" lon="10.613791000000003">
<ele>127.50647180175777</ele>
<time>2018-08-25T10:56:57Z</time>
</trkpt>
<trkpt lat="45.644085" lon="10.613662000000003">
<ele>127.82347180175776</ele>
<time>2018-08-25T10:57:05Z</time>
</trkpt>
<trkpt lat="45.64404699999999" lon="10.613529000000003">
<ele>128.60347180175776</ele>
<time>2018-08-25T10:57:14Z</time>
</trkpt>
<trkpt lat="45.643966999999996" lon="10.613453000000003">
<ele>128.93247180175777</ele>
<time>2018-08-25T10:57:22Z</time>
</trkpt>
<trkpt lat="45.64391" lon="10.613352000000003">
<ele>130.53047180175778</ele>
<time>2018-08-25T10:57:36Z</time>
</trkpt>
<trkpt lat="45.64385" lon="10.613238000000003">
<ele>131.88147180175778</ele>
<time>2018-08-25T10:57:43Z</time>
</trkpt>
<trkpt lat="45.64378" lon="10.613138000000003">
<ele>132.7094718017578</ele>
<time>2018-08-25T10:57:48Z</time>
</trkpt>
<trkpt lat="45.643684" lon="10.613112000000003">
<ele>133.1224718017578</ele>
<time>2018-08-25T10:57:53Z</time>
</trkpt>
<trkpt lat="45.643597" lon="10.613092000000004">
<ele>132.8444718017578</ele>
<time>2018-08-25T10:57:58Z</time>
</trkpt>
<trkpt lat="45.643517" lon="10.613021000000003">
<ele>132.25147180175782</ele>
<time>2018-08-25T10:58:09Z</time>
</trkpt>
<trkpt lat="45.643433" lon="10.612958000000003">
<ele>132.29547180175783</ele>
<time>2018-08-25T10:58:18Z</time>
</trkpt>
<trkpt lat="45.643356000000004" lon="10.612883000000002">
<ele>133.46347180175783</ele>
<time>2018-08-25T10:58:31Z</time>
</trkpt>
<trkpt lat="45.64329000000001" lon="10.612785000000002">
<ele>135.98947180175784</ele>
<time>2018-08-25T10:58:41Z</time>
</trkpt>
<trkpt lat="45.64325000000001" lon="10.612641000000002">
<ele>136.64747180175783</ele>
<time>2018-08-25T10:58:46Z</time>
</trkpt>
<trkpt lat="45.64319600000001" lon="10.612532000000002">
<ele>137.54247180175784</ele>
<time>2018-08-25T10:58:55Z</time>
</trkpt>
<trkpt lat="45.64313000000001" lon="10.612442000000001">
<ele>138.59347180175783</ele>
<time>2018-08-25T10:59:04Z</time>
</trkpt>
<trkpt lat="45.64304000000001" lon="10.612394000000002">
<ele>138.93947180175783</ele>
<time>2018-08-25T10:59:09Z</time>
</trkpt>
<trkpt lat="45.64298200000001" lon="10.612291000000003">
<ele>140.01647180175783</ele>
<time>2018-08-25T10:59:17Z</time>
</trkpt>
<trkpt lat="45.64290000000001" lon="10.612198000000003">
<ele>140.37147180175782</ele>
<time>2018-08-25T10:59:25Z</time>
</trkpt>
<trkpt lat="45.642834000000015" lon="10.612107000000004">
<ele>139.6194718017578</ele>
<time>2018-08-25T10:59:32Z</time>
</trkpt>
<trkpt lat="45.64279600000001" lon="10.611969000000004">
<ele>139.1734718017578</ele>
<time>2018-08-25T10:59:38Z</time>
</trkpt>
<trkpt lat="45.64272000000001" lon="10.611874000000004">
<ele>137.91447180175783</ele>
<time>2018-08-25T10:59:47Z</time>
</trkpt>
<trkpt lat="45.64268000000001" lon="10.611755000000004">
<ele>137.26947180175782</ele>
<time>2018-08-25T10:59:55Z</time>
</trkpt>
<trkpt lat="45.642643000000014" lon="10.611617000000004">
<ele>137.34747180175782</ele>
<time>2018-08-25T11:00:03Z</time>
</trkpt>
<trkpt lat="45.64261600000001" lon="10.611482000000004">
<ele>137.4814718017578</ele>
<time>2018-08-25T11:00:11Z</time>
</trkpt>
<trkpt lat="45.642536000000014" lon="10.611415000000004">
<ele>137.5484718017578</ele>
<time>2018-08-25T11:00:23Z</time>
</trkpt>
<trkpt lat="45.642445000000016" lon="10.611468000000004">
<ele>137.2324718017578</ele>
<time>2018-08-25T11:00:29Z</time>
</trkpt>
<trkpt lat="45.64236000000002" lon="10.611402000000004">
<ele>136.44947180175782</ele>
<time>2018-08-25T11:00:35Z</time>
</trkpt>
<trkpt lat="45.64229200000002" lon="10.611304000000004">
<ele>135.58847180175783</ele>
<time>2018-08-25T11:00:41Z</time>
</trkpt>
<trkpt lat="45.64224200000002" lon="10.611185000000004">
<ele>135.15447180175784</ele>
<time>2018-08-25T11:00:50Z</time>
</trkpt>
<trkpt lat="45.64221000000002" lon="10.611051000000005">
<ele>136.01847180175784</ele>
<time>2018-08-25T11:00:59Z</time>
</trkpt>
<trkpt lat="45.64211700000002" lon="10.610992000000005">
<ele>137.37147180175785</ele>
<time>2018-08-25T11:01:06Z</time>
</trkpt>
<trkpt lat="45.64206300000002" lon="10.610883000000005">
<ele>138.05947180175784</ele>
<time>2018-08-25T11:01:13Z</time>
</trkpt>
<trkpt lat="45.641980000000025" lon="10.610819000000005">
<ele>138.01747180175784</ele>
<time>2018-08-25T11:01:24Z</time>
</trkpt>
<trkpt lat="45.64192200000002" lon="10.610713000000004">
<ele>137.22247180175785</ele>
<time>2018-08-25T11:01:34Z</time>
</trkpt>
<trkpt lat="45.64185000000002" lon="10.610607000000003">
<ele>136.83247180175786</ele>
<time>2018-08-25T11:01:41Z</time>
</trkpt>
<trkpt lat="45.64177300000002" lon="10.610524000000003">
<ele>136.38747180175787</ele>
<time>2018-08-25T11:01:47Z</time>
</trkpt>
<trkpt lat="45.64172000000002" lon="10.610407000000004">
<ele>136.17247180175787</ele>
<time>2018-08-25T11:01:53Z</time>
</trkpt>
<trkpt lat="45.64165000000002" lon="10.610322000000004">
<ele>135.04547180175786</ele>
<time>2018-08-25T11:02:01Z</time>
</trkpt>
<trkpt lat="45.64162000000002" lon="10.610198000000004">
<ele>134.27147180175785</ele>
<time>2018-08-25T11:02:11Z</time>
</trkpt>
<trkpt lat="45.641660000000016" lon="10.610069000000005">
<ele>134.83547180175785</ele>
<time>2018-08-25T11:02:21Z</time>
</trkpt>
<trkpt lat="45.641697000000015" lon="10.609946000000004">
<ele>134.98247180175784</ele>
<time>2018-08-25T11:02:28Z</time>
</trkpt>
<trkpt lat="45.64175400000001" lon="10.609839000000004">
<ele>135.11547180175785</ele>
<time>2018-08-25T11:02:35Z</time>
</trkpt>
<trkpt lat="45.64174300000001" lon="10.609710000000005">
<ele>134.85647180175786</ele>
<time>2018-08-25T11:02:45Z</time>
</trkpt>
<trkpt lat="45.64168500000001" lon="10.609579000000005">
<ele>134.46147180175785</ele>
<time>2018-08-25T11:02:53Z</time>
</trkpt>
<trkpt lat="45.64160500000001" lon="10.609493000000006">
<ele>133.82247180175784</ele>
<time>2018-08-25T11:02:58Z</time>
</trkpt>
<trkpt lat="45.64150200000001" lon="10.609448000000006">
<ele>132.64847180175784</ele>
<time>2018-08-25T11:03:07Z</time>
</trkpt>
<trkpt lat="45.64144000000001" lon="10.609338000000006">
<ele>131.67447180175785</ele>
<time>2018-08-25T11:03:13Z</time>
</trkpt>
<trkpt lat="45.64135400000001" lon="10.609334000000006">
<ele>130.50647180175784</ele>
<time>2018-08-25T11:03:19Z</time>
</trkpt>
<trkpt lat="45.641290000000005" lon="10.609240000000005">
<ele>129.46747180175785</ele>
<time>2018-08-25T11:03:28Z</time>
</trkpt>
<trkpt lat="45.641290000000005" lon="10.609102000000005">
<ele>128.98447180175785</ele>
<time>2018-08-25T11:03:34Z</time>
</trkpt>
<trkpt lat="45.641273000000005" lon="10.608962000000005">
<ele>129.28047180175784</ele>
<time>2018-08-25T11:03:41Z</time>
</trkpt>
<trkpt lat="45.64125000000001" lon="10.608833000000006">
<ele>128.94147180175784</ele>
<time>2018-08-25T11:03:48Z</time>
</trkpt>
<trkpt lat="45.64117000000001" lon="10.608745000000006">
<ele>128.92847180175784</ele>
<time>2018-08-25T11:03:58Z</time>
</trkpt>
<trkpt lat="45.64109400000001" lon="10.608676000000006">
<ele>128.31847180175782</ele>
<time>2018-08-25T11:04:08Z</time>
</trkpt>
<trkpt lat="45.64100300000001" lon="10.608652000000006">
<ele>128.01347180175782</ele>
<time>2018-08-25T11:04:15Z</time>
</trkpt>
<trkpt lat="45.64090300000001" lon="10.608609000000007">
<ele>127.42547180175782</ele>
<time>2018-08-25T11:04:24Z</time>
</trkpt>
<trkpt lat="45.64081200000001" lon="10.608621000000007">
<ele>127.13447180175783</ele>
<time>2018-08-25T11:04:33Z</time>
</trkpt>
<trkpt lat="45.640760000000014" lon="10.608514000000007">
<ele>126.63347180175782</ele>
<time>2018-08-25T11:04:38Z</time>
</trkpt>
<trkpt lat="45.64066300000002" lon="10.608465000000006">
<ele>125.80447180175783</ele>
<time>2018-08-25T11:04:46Z</time>
</trkpt>
<trkpt lat="45.64064800000002" lon="10.608329000000007">
<ele>124.46347180175783</ele>
<time>2018-08-25T11:04:57Z</time>
</trkpt>
<trkpt lat="45.64056000000002" lon="10.608280000000006">
<ele>123.76747180175784</ele>
<time>2018-08-25T11:05:12Z</time>
</trkpt>
<trkpt lat="45.64046000000002" lon="10.608284000000006">
<ele>124.60947180175783</ele>
<time>2018-08-25T11:05:21Z</time>
</trkpt>
<trkpt lat="45.64038000000002" lon="10.608208000000007">
<ele>124.55447180175783</ele>
<time>2018-08-25T11:05:27Z</time>
</trkpt>
<trkpt lat="45.64029000000002" lon="10.608154000000006">
<ele>124.94447180175783</ele>
<time>2018-08-25T11:05:36Z</time>
</trkpt>
<trkpt lat="45.64020000000002" lon="10.608095000000006">
<ele>125.75047180175783</ele>
<time>2018-08-25T11:05:43Z</time>
</trkpt>
<trkpt lat="45.64013000000002" lon="10.608011000000007">
<ele>126.24547180175783</ele>
<time>2018-08-25T11:05:52Z</time>
</trkpt>
<trkpt lat="45.64004000000002" lon="10.607944000000007">
<ele>126.52747180175783</ele>
<time>2018-08-25T11:06:01Z</time>
</trkpt>
<trkpt lat="45.639957000000024" lon="10.607871000000006">
<ele>126.86447180175783</ele>
<time>2018-08-25T11:06:09Z</time>
</trkpt>
<trkpt lat="45.63987400000003" lon="10.607817000000006">
<ele>126.57647180175783</ele>
<time>2018-08-25T11:06:16Z</time>
</trkpt>
<trkpt lat="45.639790000000026" lon="10.607744000000006">
<ele>126.05947180175784</ele>
<time>2018-08-25T11:06:24Z</time>
</trkpt>
<trkpt lat="45.63971000000003" lon="10.607662000000005">
<ele>126.34147180175783</ele>
<time>2018-08-25T11:06:32Z</time>
</trkpt>
<trkpt lat="45.63964500000003" lon="10.607544000000004">
<ele>127.29947180175783</ele>
<time>2018-08-25T11:06:42Z</time>
</trkpt>
<trkpt lat="45.63958000000003" lon="10.607444000000005">
<ele>127.71147180175784</ele>
<time>2018-08-25T11:06:52Z</time>
</trkpt>
<trkpt lat="45.63951000000003" lon="10.607338000000004">
<ele>127.67947180175784</ele>
<time>2018-08-25T11:07:02Z</time>
</trkpt>
<trkpt lat="45.63948400000003" lon="10.607216000000005">
<ele>127.96047180175785</ele>
<time>2018-08-25T11:07:10Z</time>
</trkpt>
<trkpt lat="45.63947300000003" lon="10.607079000000004">
<ele>127.98247180175785</ele>
<time>2018-08-25T11:07:17Z</time>
</trkpt>
<trkpt lat="45.639410000000034" lon="10.606975000000004">
<ele>127.86147180175786</ele>
<time>2018-08-25T11:07:24Z</time>
</trkpt>
<trkpt lat="45.63934300000003" lon="10.606871000000003">
<ele>127.70447180175786</ele>
<time>2018-08-25T11:07:31Z</time>
</trkpt>
<trkpt lat="45.63932400000003" lon="10.606704000000004">
<ele>127.79647180175786</ele>
<time>2018-08-25T11:07:41Z</time>
</trkpt>
<trkpt lat="45.63929000000003" lon="10.606554000000004">
<ele>127.58147180175786</ele>
<time>2018-08-25T11:07:48Z</time>
</trkpt>
<trkpt lat="45.63921700000003" lon="10.606447000000005">
<ele>127.65047180175786</ele>
<time>2018-08-25T11:08:03Z</time>
</trkpt>
<trkpt lat="45.63917500000003" lon="10.606329000000004">
<ele>127.63547180175786</ele>
<time>2018-08-25T11:08:11Z</time>
</trkpt>
<trkpt lat="45.63915600000003" lon="10.606202000000003">
<ele>127.54947180175786</ele>
<time>2018-08-25T11:08:21Z</time>
</trkpt>
<trkpt lat="45.63915000000003" lon="10.606074000000003">
<ele>127.10147180175787</ele>
<time>2018-08-25T11:08:29Z</time>
</trkpt>
<trkpt lat="45.63917500000003" lon="10.605938000000004">
<ele>126.61247180175786</ele>
<time>2018-08-25T11:08:36Z</time>
</trkpt>
<trkpt lat="45.63921700000003" lon="10.605813000000003">
<ele>126.62247180175787</ele>
<time>2018-08-25T11:08:43Z</time>
</trkpt>
<trkpt lat="45.63916800000003" lon="10.605692000000003">
<ele>125.27647180175786</ele>
<time>2018-08-25T11:08:55Z</time>
</trkpt>
<trkpt lat="45.639100000000035" lon="10.605578000000003">
<ele>124.88947180175786</ele>
<time>2018-08-25T11:08:58Z</time>
</trkpt>
<trkpt lat="45.63904000000004" lon="10.605462000000003">
<ele>124.33547180175786</ele>
<time>2018-08-25T11:09:06Z</time>
</trkpt>
<trkpt lat="45.63902300000004" lon="10.605334000000003">
<ele>124.63247180175786</ele>
<time>2018-08-25T11:09:13Z</time>
</trkpt>
<trkpt lat="45.638996000000034" lon="10.605207000000002">
<ele>125.21847180175786</ele>
<time>2018-08-25T11:09:22Z</time>
</trkpt>
<trkpt lat="45.63899200000004" lon="10.605078000000002">
<ele>125.61747180175786</ele>
<time>2018-08-25T11:09:29Z</time>
</trkpt>
<trkpt lat="45.63895000000004" lon="10.604947000000003">
<ele>126.34947180175786</ele>
<time>2018-08-25T11:09:37Z</time>
</trkpt>
<trkpt lat="45.638954000000034" lon="10.604804000000003">
<ele>127.06747180175786</ele>
<time>2018-08-25T11:09:45Z</time>
</trkpt>
<trkpt lat="45.63889000000003" lon="10.604682000000004">
<ele>127.31547180175787</ele>
<time>2018-08-25T11:09:53Z</time>
</trkpt>
<trkpt lat="45.63883200000003" lon="10.604575000000004">
<ele>127.21647180175786</ele>
<time>2018-08-25T11:10:01Z</time>
</trkpt>
<trkpt lat="45.638794000000026" lon="10.604447000000004">
<ele>127.48447180175786</ele>
<time>2018-08-25T11:10:09Z</time>
</trkpt>
<trkpt lat="45.63874000000003" lon="10.604323000000004">
<ele>126.62347180175786</ele>
<time>2018-08-25T11:10:17Z</time>
</trkpt>
<trkpt lat="45.638690000000025" lon="10.604217000000004">
<ele>125.29647180175786</ele>
<time>2018-08-25T11:10:25Z</time>
</trkpt>
<trkpt lat="45.63865000000003" lon="10.604095000000004">
<ele>124.46547180175786</ele>
<time>2018-08-25T11:10:35Z</time>
</trkpt>
<trkpt lat="45.63873700000003" lon="10.603973000000005">
<ele>124.78847180175785</ele>
<time>2018-08-25T11:10:43Z</time>
</trkpt>
<trkpt lat="45.638710000000025" lon="10.603839000000006">
<ele>124.95747180175785</ele>
<time>2018-08-25T11:10:52Z</time>
</trkpt>
<trkpt lat="45.63862600000002" lon="10.603784000000006">
<ele>125.30447180175784</ele>
<time>2018-08-25T11:10:57Z</time>
</trkpt>
<trkpt lat="45.63855400000002" lon="10.603693000000007">
<ele>126.28347180175784</ele>
<time>2018-08-25T11:11:04Z</time>
</trkpt>
<trkpt lat="45.63848000000002" lon="10.603599000000006">
<ele>127.21847180175784</ele>
<time>2018-08-25T11:11:12Z</time>
</trkpt>
<trkpt lat="45.63842400000002" lon="10.603495000000006">
<ele>127.79847180175784</ele>
<time>2018-08-25T11:11:23Z</time>
</trkpt>
<trkpt lat="45.63838600000002" lon="10.603362000000006">
<ele>128.06347180175783</ele>
<time>2018-08-25T11:11:33Z</time>
</trkpt>
<trkpt lat="45.638317000000015" lon="10.603094000000006">
<ele>127.81847180175782</ele>
<time>2018-08-25T11:12:05Z</time>
</trkpt>
<trkpt lat="45.638294000000016" lon="10.602956000000006">
<ele>127.28347180175783</ele>
<time>2018-08-25T11:12:13Z</time>
</trkpt>
<trkpt lat="45.63831000000002" lon="10.602815000000007">
<ele>127.08347180175782</ele>
<time>2018-08-25T11:12:21Z</time>
</trkpt>
<trkpt lat="45.63835000000002" lon="10.602699000000007">
<ele>126.74047180175782</ele>
<time>2018-08-25T11:12:31Z</time>
</trkpt>
<trkpt lat="45.63831300000002" lon="10.602575000000007">
<ele>126.44747180175781</ele>
<time>2018-08-25T11:12:37Z</time>
</trkpt>
<trkpt lat="45.63826400000002" lon="10.602455000000006">
<ele>126.16347180175781</ele>
<time>2018-08-25T11:12:46Z</time>
</trkpt>
<trkpt lat="45.63823300000002" lon="10.602330000000006">
<ele>126.0944718017578</ele>
<time>2018-08-25T11:12:56Z</time>
</trkpt>
<trkpt lat="45.63818000000002" lon="10.602223000000006">
<ele>126.5904718017578</ele>
<time>2018-08-25T11:13:03Z</time>
</trkpt>
<trkpt lat="45.63813400000002" lon="10.602108000000007">
<ele>126.7014718017578</ele>
<time>2018-08-25T11:13:11Z</time>
</trkpt>
<trkpt lat="45.63808400000002" lon="10.601988000000006">
<ele>126.1834718017578</ele>
<time>2018-08-25T11:13:20Z</time>
</trkpt>
<trkpt lat="45.63801200000002" lon="10.601907000000006">
<ele>125.7534718017578</ele>
<time>2018-08-25T11:13:27Z</time>
</trkpt>
<trkpt lat="45.637943000000014" lon="10.601813000000005">
<ele>125.07347180175779</ele>
<time>2018-08-25T11:13:34Z</time>
</trkpt>
<trkpt lat="45.637870000000014" lon="10.601731000000004">
<ele>123.69447180175779</ele>
<time>2018-08-25T11:13:41Z</time>
</trkpt>
<trkpt lat="45.63786000000001" lon="10.601599000000004">
<ele>122.39547180175778</ele>
<time>2018-08-25T11:13:49Z</time>
</trkpt>
<trkpt lat="45.63776400000001" lon="10.601558000000004">
<ele>121.35447180175778</ele>
<time>2018-08-25T11:13:57Z</time>
</trkpt>
<trkpt lat="45.63766500000001" lon="10.601543000000005">
<ele>121.32847180175779</ele>
<time>2018-08-25T11:14:01Z</time>
</trkpt>
<trkpt lat="45.637577000000014" lon="10.601628000000005">
<ele>124.12547180175778</ele>
<time>2018-08-25T11:14:04Z</time>
</trkpt>
<trkpt lat="45.637535000000014" lon="10.601487000000006">
<ele>126.20447180175778</ele>
<time>2018-08-25T11:14:16Z</time>
</trkpt>
<trkpt lat="45.63752700000001" lon="10.601357000000005">
<ele>126.47647180175778</ele>
<time>2018-08-25T11:14:22Z</time>
</trkpt>
<trkpt lat="45.637540000000016" lon="10.601226000000006">
<ele>126.46247180175779</ele>
<time>2018-08-25T11:14:27Z</time>
</trkpt>
<trkpt lat="45.63752700000001" lon="10.601076000000006">
<ele>126.12247180175778</ele>
<time>2018-08-25T11:14:34Z</time>
</trkpt>
<trkpt lat="45.637450000000015" lon="10.600987000000007">
<ele>126.04147180175778</ele>
<time>2018-08-25T11:14:44Z</time>
</trkpt>
<trkpt lat="45.637363000000015" lon="10.600943000000006">
<ele>125.62047180175777</ele>
<time>2018-08-25T11:14:50Z</time>
</trkpt>
<trkpt lat="45.637295000000016" lon="10.600846000000006">
<ele>124.88547180175777</ele>
<time>2018-08-25T11:15:03Z</time>
</trkpt>
<trkpt lat="45.637146000000016" lon="10.600663000000006">
<ele>120.86847180175778</ele>
<time>2018-08-25T11:16:25Z</time>
</trkpt>
<trkpt lat="45.637096000000014" lon="10.600551000000006">
<ele>119.78247180175778</ele>
<time>2018-08-25T11:16:37Z</time>
</trkpt>
<trkpt lat="45.63686000000001" lon="10.600475000000007">
<ele>125.77347180175778</ele>
<time>2018-08-25T11:23:36Z</time>
</trkpt>
</trkseg>
</trk>
</gpx>
